createdAt,value
2024-05-09T00:01:32.348Z,179.74
2024-05-09T00:02:32.378Z,177.36
2024-05-09T00:03:32.373Z,179.38
2024-05-09T00:04:32.334Z,176.68
2024-05-09T00:05:32.409Z,174.23
2024-05-09T00:06:32.306Z,172.38
2024-05-09T00:07:32.321Z,175.05
2024-05-09T00:08:32.558Z,172.85
2024-05-09T00:09:32.327Z,172.51
2024-05-09T00:10:37.224Z,170.79
2024-05-09T00:11:33.406Z,171.14
2024-05-09T00:12:32.298Z,171.82
2024-05-09T00:13:32.314Z,172.13
2024-05-09T00:14:32.391Z,173.61
2024-05-09T00:15:32.333Z,177.27
2024-05-09T00:16:32.321Z,176.66
2024-05-09T00:17:32.475Z,174.88
2024-05-09T00:18:32.442Z,174.42
2024-05-09T00:19:32.615Z,173.49
2024-05-09T00:20:37.982Z,181.33
2024-05-09T00:21:33.617Z,181.44
2024-05-09T00:22:32.613Z,180.27
2024-05-09T00:23:32.868Z,178.11
2024-05-09T00:24:32.648Z,177.46
2024-05-09T00:25:32.645Z,178.38
2024-05-09T00:26:32.719Z,179.24
2024-05-09T00:27:32.661Z,178.91
2024-05-09T00:28:32.669Z,179.49
2024-05-09T00:29:32.800Z,179.63
2024-05-09T00:30:35.788Z,181.93
2024-05-09T00:31:32.760Z,182.13
2024-05-09T00:32:32.903Z,182.79
2024-05-09T00:33:32.880Z,183.46
2024-05-09T00:34:32.817Z,183.80
2024-05-09T00:35:32.993Z,185.33
2024-05-09T00:36:32.821Z,184.33
2024-05-09T00:37:32.830Z,185.30
2024-05-09T00:38:33.028Z,184.70
2024-05-09T00:39:32.864Z,184.82
2024-05-09T00:40:38.929Z,182.30
2024-05-09T00:41:34.018Z,182.61
2024-05-09T00:42:32.894Z,183.32
2024-05-09T00:43:32.975Z,184.92
2024-05-09T00:44:32.986Z,185.81
2024-05-09T00:45:32.897Z,186.11
2024-05-09T00:46:32.932Z,183.62
2024-05-09T00:47:33.206Z,182.04
2024-05-09T00:48:33.282Z,179.38
2024-05-09T00:49:33.152Z,177.29
2024-05-09T00:50:36.512Z,175.48
2024-05-09T00:51:32.952Z,175.56
2024-05-09T00:52:32.982Z,176.04
2024-05-09T00:53:33.192Z,175.62
2024-05-09T00:54:32.973Z,169.22
2024-05-09T00:55:32.980Z,167.63
2024-05-09T00:56:33.073Z,165.32
2024-05-09T00:57:33.024Z,163.94
2024-05-09T00:58:33.021Z,166.29
2024-05-09T00:59:33.104Z,168.59
2024-05-09T01:00:38.717Z,166.22
2024-05-09T01:01:34.190Z,166.41
2024-05-09T01:02:33.155Z,166.29
2024-05-09T01:03:33.327Z,164.58
2024-05-09T01:04:33.091Z,164.64
2024-05-09T01:05:33.218Z,166.01
2024-05-09T01:06:33.064Z,167.38
2024-05-09T01:07:33.148Z,169.06
2024-05-09T01:08:33.254Z,167.84
2024-05-09T01:09:33.151Z,168.54
2024-05-09T01:10:35.127Z,166.88
2024-05-09T01:11:33.265Z,167.95
2024-05-09T01:12:33.307Z,167.34
2024-05-09T01:13:33.313Z,168.71
2024-05-09T01:14:33.357Z,171.48
2024-05-09T01:15:33.342Z,173.70
2024-05-09T01:16:33.355Z,171.91
2024-05-09T01:17:33.505Z,173.16
2024-05-09T01:18:33.476Z,170.62
2024-05-09T01:19:33.468Z,168.86
2024-05-09T01:20:41.019Z,167.83
2024-05-09T01:21:34.424Z,168.14
2024-05-09T01:22:33.427Z,169.11
2024-05-09T01:23:33.572Z,170.48
2024-05-09T01:24:33.495Z,174.12
2024-05-09T01:25:33.518Z,175.51
2024-05-09T01:26:33.599Z,173.72
2024-05-09T01:27:33.535Z,174.64
2024-05-09T01:28:33.563Z,173.21
2024-05-09T01:29:33.789Z,172.72
2024-05-09T01:30:36.464Z,173.83
2024-05-09T01:31:34.030Z,175.35
2024-05-09T01:32:34.173Z,173.06
2024-05-09T01:33:34.082Z,170.27
2024-05-09T01:34:34.033Z,170.70
2024-05-09T01:35:34.081Z,172.84
2024-05-09T01:36:34.041Z,171.59
2024-05-09T01:37:34.170Z,169.87
2024-05-09T01:38:34.314Z,171.16
2024-05-09T01:39:34.202Z,175.62
2024-05-09T01:40:38.441Z,174.61
2024-05-09T01:41:35.285Z,174.86
2024-05-09T01:42:34.267Z,175.45
2024-05-09T01:43:34.343Z,173.65
2024-05-09T01:44:34.358Z,168.50
2024-05-09T01:45:34.317Z,167.61
2024-05-09T01:46:34.340Z,168.09
2024-05-09T01:47:34.460Z,168.92
2024-05-09T01:48:34.422Z,170.81
2024-05-09T01:49:34.424Z,174.64
2024-05-09T01:50:39.401Z,177.52
2024-05-09T01:51:35.439Z,177.80
2024-05-09T01:52:34.466Z,178.40
2024-05-09T01:53:34.508Z,179.14
2024-05-09T01:54:34.519Z,180.65
2024-05-09T01:55:34.573Z,182.84
2024-05-09T01:56:34.685Z,183.41
2024-05-09T01:57:34.534Z,183.61
2024-05-09T01:58:34.632Z,184.19
2024-05-09T01:59:34.879Z,183.99
2024-05-09T02:00:40.040Z,183.60
2024-05-09T02:01:55.629Z,183.75
2024-05-09T02:02:36.102Z,179.25
2024-05-09T02:03:35.205Z,180.66
2024-05-09T02:04:35.201Z,186.06
2024-05-09T02:05:35.167Z,186.42
2024-05-09T02:06:35.077Z,187.25
2024-05-09T02:07:35.102Z,187.39
2024-05-09T02:08:35.210Z,187.89
2024-05-09T02:09:35.135Z,188.56
2024-05-09T02:10:35.300Z,180.46
2024-05-09T02:11:35.236Z,182.62
2024-05-09T02:12:35.202Z,179.96
2024-05-09T02:13:35.192Z,180.16
2024-05-09T02:14:35.279Z,181.22
2024-05-09T02:15:35.224Z,180.91
2024-05-09T02:16:35.230Z,180.69
2024-05-09T02:17:35.419Z,180.64
2024-05-09T02:18:35.298Z,180.32
2024-05-09T02:19:35.400Z,187.67
2024-05-09T02:20:36.839Z,192.54
2024-05-09T02:21:35.397Z,189.84
2024-05-09T02:22:35.390Z,188.60
2024-05-09T02:23:35.451Z,189.68
2024-05-09T02:24:35.405Z,189.98
2024-05-09T02:25:35.480Z,190.30
2024-05-09T02:26:35.548Z,190.67
2024-05-09T02:27:35.508Z,191.29
2024-05-09T02:28:35.531Z,187.61
2024-05-09T02:29:35.651Z,187.23
2024-05-09T02:30:40.187Z,186.62
2024-05-09T02:31:36.714Z,186.63
2024-05-09T02:32:35.841Z,185.34
2024-05-09T02:33:36.001Z,186.66
2024-05-09T02:34:35.779Z,190.33
2024-05-09T02:35:35.836Z,180.29
2024-05-09T02:36:35.772Z,181.84
2024-05-09T02:37:35.779Z,191.05
2024-05-09T02:38:35.830Z,190.36
2024-05-09T02:39:35.790Z,191.93
2024-05-09T02:40:38.363Z,184.02
2024-05-09T02:41:35.931Z,189.63
2024-05-09T02:42:35.861Z,187.38
2024-05-09T02:43:35.868Z,184.96
2024-05-09T02:44:35.978Z,185.70
2024-05-09T02:45:35.928Z,185.79
2024-05-09T02:46:35.902Z,185.14
2024-05-09T02:47:36.051Z,185.80
2024-05-09T02:48:36.096Z,185.32
2024-05-09T02:49:36.064Z,184.49
2024-05-09T02:50:39.168Z,183.81
2024-05-09T02:51:36.059Z,184.02
2024-05-09T02:52:36.005Z,184.37
2024-05-09T02:53:36.055Z,184.60
2024-05-09T02:54:36.026Z,184.34
2024-05-09T02:55:36.035Z,184.60
2024-05-09T02:56:36.092Z,182.74
2024-05-09T02:57:36.049Z,181.68
2024-05-09T02:58:36.067Z,181.71
2024-05-09T02:59:36.118Z,180.72
2024-05-09T03:00:39.647Z,181.12
2024-05-09T03:01:37.178Z,181.15
2024-05-09T03:02:36.125Z,182.02
2024-05-09T03:03:36.370Z,182.65
2024-05-09T03:04:36.312Z,183.11
2024-05-09T03:05:36.378Z,186.23
2024-05-09T03:06:36.187Z,186.27
2024-05-09T03:07:36.195Z,183.90
2024-05-09T03:08:36.303Z,183.47
2024-05-09T03:09:36.196Z,179.11
2024-05-09T03:10:38.313Z,174.84
2024-05-09T03:11:36.363Z,175.10
2024-05-09T03:12:37.965Z,175.92
2024-05-09T03:13:36.275Z,176.06
2024-05-09T03:14:36.313Z,176.61
2024-05-09T03:15:36.353Z,175.93
2024-05-09T03:16:36.301Z,170.18
2024-05-09T03:17:36.566Z,169.17
2024-05-09T03:18:36.356Z,168.83
2024-05-09T03:19:36.338Z,166.35
2024-05-09T03:20:37.150Z,167.24
2024-05-09T03:21:36.321Z,170.86
2024-05-09T03:22:36.337Z,171.55
2024-05-09T03:23:36.370Z,168.32
2024-05-09T03:24:36.351Z,164.91
2024-05-09T03:25:36.369Z,165.17
2024-05-09T03:26:36.423Z,163.13
2024-05-09T03:27:36.380Z,165.77
2024-05-09T03:28:36.390Z,166.77
2024-05-09T03:29:36.448Z,163.05
2024-05-09T03:30:41.385Z,161.85
2024-05-09T03:31:37.461Z,162.13
2024-05-09T03:32:36.548Z,163.44
2024-05-09T03:33:36.768Z,165.09
2024-05-09T03:34:36.439Z,167.54
2024-05-09T03:35:36.526Z,171.05
2024-05-09T03:36:36.457Z,173.21
2024-05-09T03:37:36.526Z,175.30
2024-05-09T03:38:36.734Z,176.78
2024-05-09T03:39:36.903Z,174.41
2024-05-09T03:40:37.115Z,173.94
2024-05-09T03:41:37.377Z,170.25
2024-05-09T03:42:37.522Z,166.78
2024-05-09T03:43:37.734Z,167.66
2024-05-09T03:44:37.945Z,167.20
2024-05-09T03:45:38.138Z,167.95
2024-05-09T03:46:38.325Z,165.73
2024-05-09T03:47:38.639Z,163.82
2024-05-09T03:48:38.772Z,162.52
2024-05-09T03:49:38.943Z,162.58
2024-05-09T03:50:39.182Z,163.61
2024-05-09T03:51:39.275Z,163.89
2024-05-09T03:52:39.456Z,163.73
2024-05-09T03:53:39.785Z,164.10
2024-05-09T03:54:39.853Z,165.36
2024-05-09T03:55:40.060Z,164.14
2024-05-09T03:56:40.356Z,162.53
2024-05-09T03:57:40.457Z,158.46
2024-05-09T03:58:40.638Z,157.11
2024-05-09T03:59:40.923Z,158.15
2024-05-09T04:00:41.194Z,162.23
2024-05-09T04:01:41.372Z,164.46
2024-05-09T04:02:41.561Z,161.91
2024-05-09T04:03:41.787Z,157.71
2024-05-09T04:04:41.968Z,156.80
2024-05-09T04:05:43.231Z,158.33
2024-05-09T04:06:42.158Z,158.06
2024-05-09T04:07:42.241Z,160.60
2024-05-09T04:08:42.340Z,161.67
2024-05-09T04:09:42.390Z,163.76
2024-05-09T04:10:42.464Z,163.73
2024-05-09T04:11:42.665Z,161.69
2024-05-09T04:12:42.613Z,160.71
2024-05-09T04:13:42.690Z,158.79
2024-05-09T04:14:42.904Z,157.86
2024-05-09T04:15:43.052Z,157.09
2024-05-09T04:16:43.255Z,151.08
2024-05-09T04:17:43.688Z,152.89
2024-05-09T04:18:43.762Z,154.49
2024-05-09T04:19:43.892Z,153.03
2024-05-09T04:20:44.058Z,151.88
2024-05-09T04:21:44.234Z,151.56
2024-05-09T04:22:44.484Z,152.25
2024-05-09T04:23:44.686Z,151.12
2024-05-09T04:24:44.838Z,150.61
2024-05-09T04:25:45.729Z,149.74
2024-05-09T04:26:45.104Z,150.57
2024-05-09T04:27:45.179Z,150.18
2024-05-09T04:28:45.269Z,148.16
2024-05-09T04:29:45.317Z,149.27
2024-05-09T04:30:45.414Z,148.48
2024-05-09T04:31:45.441Z,148.69
2024-05-09T04:32:45.594Z,148.20
2024-05-09T04:33:53.646Z,50.00
2024-05-09T04:34:53.640Z,50.00
2024-05-09T04:35:53.746Z,50.00
2024-05-09T04:36:53.967Z,50.00
2024-05-09T04:37:54.132Z,50.00
2024-05-09T04:38:54.153Z,50.26
2024-05-09T04:39:54.290Z,50.00
2024-05-09T04:40:54.573Z,50.92
2024-05-09T04:41:54.642Z,50.41
2024-05-09T04:42:54.780Z,50.08
2024-05-09T04:43:54.985Z,50.00
2024-05-09T04:44:58.258Z,49.31
2024-05-09T04:45:55.110Z,49.32
2024-05-09T04:46:55.130Z,45.61
2024-05-09T04:47:55.338Z,45.10
2024-05-09T04:48:55.224Z,43.18
2024-05-09T04:49:55.179Z,41.38
2024-05-09T04:50:55.185Z,51.29
2024-05-09T04:51:55.175Z,50.49
2024-05-09T04:52:55.211Z,50.72
2024-05-09T04:53:55.212Z,51.59
2024-05-09T04:54:56.902Z,52.06
2024-05-09T04:55:55.296Z,52.27
2024-05-09T04:56:56.003Z,52.81
2024-05-09T04:57:55.250Z,55.11
2024-05-09T04:58:55.303Z,57.30
2024-05-09T04:59:55.303Z,61.07
2024-05-09T05:00:55.320Z,62.06
2024-05-09T05:01:55.379Z,63.40
2024-05-09T05:02:55.492Z,62.78
2024-05-09T05:03:56.137Z,61.95
2024-05-09T05:04:55.432Z,64.26
2024-05-09T05:05:55.436Z,67.80
2024-05-09T05:06:56.020Z,68.74
2024-05-09T05:07:55.383Z,71.73
2024-05-09T05:08:55.367Z,68.83
2024-05-09T05:09:55.361Z,67.59
2024-05-09T05:10:55.526Z,69.51
2024-05-09T05:11:55.749Z,70.60
2024-05-09T05:12:55.420Z,76.42
2024-05-09T05:13:55.489Z,81.38
2024-05-09T05:14:55.466Z,84.24
2024-05-09T05:15:55.923Z,80.63
2024-05-09T05:16:55.484Z,81.63
2024-05-09T05:17:55.702Z,79.87
2024-05-09T05:18:55.649Z,78.46
2024-05-09T05:19:55.724Z,74.25
2024-05-09T05:20:55.724Z,73.70
2024-05-09T05:21:55.554Z,72.34
2024-05-09T05:22:55.633Z,74.67
2024-05-09T05:23:55.627Z,75.31
2024-05-09T05:24:55.670Z,76.54
2024-05-09T05:25:55.977Z,77.95
2024-05-09T05:26:55.809Z,71.97
2024-05-09T05:27:55.915Z,68.71
2024-05-09T05:28:56.007Z,69.65
2024-05-09T05:29:56.071Z,71.55
2024-05-09T05:30:56.194Z,71.21
2024-05-09T05:31:56.185Z,70.45
2024-05-09T05:32:56.370Z,71.98
2024-05-09T05:33:56.503Z,75.29
2024-05-09T05:34:56.653Z,75.82
2024-05-09T05:35:56.792Z,72.83
2024-05-09T05:36:56.959Z,73.53
2024-05-09T05:37:57.180Z,76.56
2024-05-09T05:38:57.356Z,74.66
2024-05-09T05:39:57.465Z,72.15
2024-05-09T05:40:57.683Z,68.88
2024-05-09T05:41:57.791Z,61.72
2024-05-09T05:42:57.988Z,59.85
2024-05-09T05:43:58.205Z,57.76
2024-05-09T05:44:58.318Z,61.20
2024-05-09T05:45:58.502Z,64.93
2024-05-09T05:46:58.682Z,69.50
2024-05-09T05:47:59.026Z,77.18
2024-05-09T05:48:59.164Z,74.76
2024-05-09T05:49:59.246Z,70.07
2024-05-09T05:51:01.934Z,66.34
2024-05-09T05:51:59.418Z,63.01
2024-05-09T05:52:59.452Z,50.96
2024-05-09T05:53:59.437Z,44.76
2024-05-09T05:54:59.449Z,40.26
2024-05-09T05:55:59.483Z,41.26
2024-05-09T05:56:59.620Z,52.04
2024-05-09T05:57:59.478Z,57.64
2024-05-09T05:58:59.538Z,59.01
2024-05-09T05:59:59.459Z,61.10
2024-05-09T06:00:59.495Z,62.51
2024-05-09T06:01:59.505Z,62.60
2024-05-09T06:02:59.597Z,63.83
2024-05-09T06:03:59.648Z,64.01
2024-05-09T06:04:59.551Z,64.51
2024-05-09T06:05:59.659Z,65.29
2024-05-09T06:06:59.500Z,64.55
2024-05-09T06:07:59.583Z,63.61
2024-05-09T06:08:59.499Z,64.72
2024-05-09T06:09:59.509Z,66.67
2024-05-09T06:10:59.629Z,66.53
2024-05-09T06:11:59.625Z,65.74
2024-05-09T06:12:59.632Z,67.74
2024-05-09T06:13:59.708Z,70.41
2024-05-09T06:14:59.714Z,71.32
2024-05-09T06:15:59.761Z,70.72
2024-05-09T06:16:59.820Z,62.84
2024-05-09T06:18:00.097Z,61.53
2024-05-09T06:18:59.983Z,57.59
2024-05-09T06:19:59.978Z,54.18
2024-05-09T06:21:00.091Z,52.45
2024-05-09T06:22:00.164Z,51.37
2024-05-09T06:23:00.378Z,50.68
2024-05-09T06:24:02.512Z,51.10
2024-05-09T06:25:00.502Z,54.87
2024-05-09T06:26:00.530Z,58.52
2024-05-09T06:27:00.475Z,53.05
2024-05-09T06:28:00.624Z,50.00
2024-05-09T06:29:00.546Z,50.56
2024-05-09T06:30:00.513Z,52.74
2024-05-09T06:31:00.514Z,52.27
2024-05-09T06:32:00.693Z,54.81
2024-05-09T06:33:00.720Z,50.00
2024-05-09T06:34:00.653Z,50.40
2024-05-09T06:35:00.547Z,50.02
2024-05-09T06:36:00.488Z,50.00
2024-05-09T06:37:00.499Z,51.20
2024-05-09T06:38:00.534Z,53.30
2024-05-09T06:39:00.482Z,51.93
2024-05-09T06:40:00.468Z,50.00
2024-05-09T06:41:00.525Z,52.60
2024-05-09T06:42:00.466Z,51.07
2024-05-09T06:43:00.586Z,51.61
2024-05-09T06:44:00.642Z,53.72
2024-05-09T06:45:00.598Z,55.74
2024-05-09T06:46:00.546Z,63.25
2024-05-09T06:47:00.654Z,67.90
2024-05-09T06:48:00.790Z,70.40
2024-05-09T06:49:00.605Z,65.73
2024-05-09T06:50:00.624Z,68.58
2024-05-09T06:51:00.578Z,66.47
2024-05-09T06:52:00.487Z,63.92
2024-05-09T06:53:00.638Z,61.14
2024-05-09T06:54:00.496Z,63.30
2024-05-09T06:55:00.488Z,64.65
2024-05-09T06:56:00.509Z,66.38
2024-05-09T06:57:00.489Z,62.55
2024-05-09T06:58:00.484Z,61.59
2024-05-09T06:59:00.628Z,58.39
2024-05-09T07:00:00.450Z,57.04
2024-05-09T07:01:00.462Z,54.00
2024-05-09T07:02:00.462Z,55.42
2024-05-09T07:03:03.502Z,61.46
2024-05-09T07:04:00.434Z,61.66
2024-05-09T07:05:00.519Z,59.34
2024-05-09T07:06:00.422Z,52.97
2024-05-09T07:07:00.388Z,46.05
2024-05-09T07:08:00.436Z,39.88
2024-05-09T07:09:00.359Z,50.73
2024-05-09T07:10:00.353Z,50.44
2024-05-09T07:11:00.487Z,50.00
2024-05-09T07:12:00.396Z,50.89
2024-05-09T07:13:00.346Z,50.78
2024-05-09T07:14:00.351Z,56.28
2024-05-09T07:15:00.328Z,61.81
2024-05-09T07:16:00.341Z,59.72
2024-05-09T07:17:00.353Z,59.62
2024-05-09T07:18:00.443Z,55.26
2024-05-09T07:19:00.498Z,58.54
2024-05-09T07:20:00.471Z,62.09
2024-05-09T07:21:00.273Z,61.55
2024-05-09T07:22:00.254Z,66.79
2024-05-09T07:23:00.289Z,67.77
2024-05-09T07:24:00.246Z,72.87
2024-05-09T07:25:00.202Z,72.51
2024-05-09T07:26:00.237Z,75.04
2024-05-09T07:27:00.154Z,70.38
2024-05-09T07:28:00.160Z,67.61
2024-05-09T07:29:00.134Z,66.41
2024-05-09T07:30:00.143Z,54.40
2024-05-09T07:31:00.090Z,50.00
2024-05-09T07:32:00.195Z,50.58
2024-05-09T07:33:00.605Z,52.65
2024-05-09T07:34:00.524Z,50.00
2024-05-09T07:35:00.260Z,50.00
2024-05-09T07:36:00.265Z,50.00
2024-05-09T07:37:00.308Z,50.00
2024-05-09T07:38:00.408Z,50.00
2024-05-09T07:39:00.386Z,50.73
2024-05-09T07:40:00.464Z,50.00
2024-05-09T07:41:00.520Z,50.00
2024-05-09T07:42:00.399Z,50.66
2024-05-09T07:43:00.418Z,53.83
2024-05-09T07:44:00.471Z,60.27
2024-05-09T07:45:20.540Z,62.77
2024-05-09T07:46:48.260Z,62.89
2024-05-09T07:51:48.223Z,63.35
2024-05-09T07:53:07.623Z,63.52
2024-05-09T07:53:24.937Z,63.71
2024-05-09T07:53:35.948Z,63.74
2024-05-09T07:54:01.897Z,63.77
2024-05-09T07:55:00.599Z,63.91
2024-05-09T07:56:00.369Z,67.58
2024-05-09T07:57:00.317Z,73.77
2024-05-09T07:58:00.182Z,76.71
2024-05-09T07:59:00.129Z,79.89
2024-05-09T08:00:00.185Z,76.65
2024-05-09T08:01:00.279Z,76.48
2024-05-09T08:02:00.573Z,70.32
2024-05-09T08:03:01.439Z,66.10
2024-05-09T08:04:00.388Z,57.18
2024-05-09T08:05:00.361Z,49.78
2024-05-09T08:06:00.156Z,43.66
2024-05-09T08:07:00.120Z,40.96
2024-05-09T08:08:00.103Z,53.42
2024-05-09T08:09:03.101Z,59.05
2024-05-09T08:10:01.039Z,59.21
2024-05-09T08:10:59.959Z,54.71
2024-05-09T08:11:59.952Z,46.60
2024-05-09T08:12:59.996Z,44.32
2024-05-09T08:13:59.926Z,38.23
2024-05-09T08:14:59.912Z,48.27
2024-05-09T08:15:59.964Z,53.16
2024-05-09T08:16:59.910Z,58.68
2024-05-09T08:18:00.075Z,58.68
2024-05-09T08:19:00.001Z,53.23
2024-05-09T08:20:00.356Z,55.98
2024-05-09T08:20:59.759Z,56.36
2024-05-09T08:21:59.724Z,50.79
2024-05-09T08:22:59.700Z,50.24
2024-05-09T08:24:00.574Z,51.73
2024-05-09T08:24:59.681Z,51.05
2024-05-09T08:25:59.625Z,50.00
2024-05-09T08:26:59.613Z,49.79
2024-05-09T08:27:59.636Z,50.00
2024-05-09T08:28:59.581Z,53.79
2024-05-09T08:29:59.586Z,62.60
2024-05-09T08:31:01.628Z,61.61
2024-05-09T08:31:59.647Z,57.29
2024-05-09T08:32:59.638Z,54.40
2024-05-09T08:33:59.715Z,56.31
2024-05-09T08:34:59.558Z,59.15
2024-05-09T08:35:59.488Z,61.82
2024-05-09T08:37:03.927Z,69.53
2024-05-09T08:38:00.471Z,69.97
2024-05-09T08:38:59.385Z,69.82
2024-05-09T08:39:59.363Z,67.19
2024-05-09T08:40:59.344Z,62.36
2024-05-09T08:41:59.306Z,59.61
2024-05-09T08:42:59.310Z,54.24
2024-05-09T08:43:59.263Z,51.47
2024-05-09T08:44:59.219Z,50.55
2024-05-09T08:45:59.224Z,50.00
2024-05-09T08:46:59.115Z,50.00
2024-05-09T08:47:59.234Z,50.29
2024-05-09T08:48:59.145Z,53.15
2024-05-09T08:49:59.036Z,50.75
2024-05-09T08:50:58.965Z,51.70
2024-05-09T08:51:58.921Z,52.03
2024-05-09T08:52:58.850Z,56.87
2024-05-09T08:53:58.800Z,66.41
2024-05-09T08:54:58.789Z,66.40
2024-05-09T08:55:58.723Z,70.38
2024-05-09T08:56:58.697Z,70.99
2024-05-09T08:57:58.705Z,77.39
2024-05-09T08:58:58.651Z,80.88
2024-05-09T08:59:58.644Z,89.23
2024-05-09T09:00:58.679Z,83.82
2024-05-09T09:01:58.657Z,81.19
2024-05-09T09:02:58.588Z,83.35
2024-05-09T09:03:58.659Z,90.80
2024-05-09T09:04:58.525Z,98.41
2024-05-09T09:05:58.458Z,94.96
2024-05-09T09:06:59.760Z,92.34
2024-05-09T09:07:58.435Z,91.52
2024-05-09T09:08:58.445Z,85.35
2024-05-09T09:09:58.482Z,74.73
2024-05-09T09:10:58.476Z,70.20
2024-05-09T09:11:58.486Z,70.96
2024-05-09T09:12:58.506Z,64.46
2024-05-09T09:13:58.507Z,59.38
2024-05-09T09:14:58.557Z,50.00
2024-05-09T09:15:59.259Z,50.42
2024-05-09T09:16:58.547Z,51.81
2024-05-09T09:17:58.663Z,51.00
2024-05-09T09:18:58.557Z,50.66
2024-05-09T09:19:58.524Z,50.00
2024-05-09T09:20:58.485Z,53.60
2024-05-09T09:21:58.499Z,62.35
2024-05-09T09:22:58.436Z,70.02
2024-05-09T09:23:58.472Z,72.70
2024-05-09T09:24:58.475Z,74.22
2024-05-09T09:25:58.488Z,75.66
2024-05-09T09:26:58.463Z,67.50
2024-05-09T09:27:58.724Z,76.43
2024-05-09T09:28:58.479Z,78.60
2024-05-09T09:29:58.504Z,77.28
2024-05-09T09:30:58.517Z,84.44
2024-05-09T09:31:58.489Z,77.12
2024-05-09T09:32:58.589Z,77.80
2024-05-09T09:33:58.585Z,82.00
2024-05-09T09:34:58.497Z,84.95
2024-05-09T09:35:58.473Z,78.49
2024-05-09T09:36:58.517Z,73.09
2024-05-09T09:37:58.446Z,71.04
2024-05-09T09:38:58.458Z,73.73
2024-05-09T09:39:58.424Z,75.93
2024-05-09T09:40:58.465Z,80.06
2024-05-09T09:41:58.329Z,86.75
2024-05-09T09:42:58.386Z,91.71
2024-05-09T09:43:58.272Z,93.99
2024-05-09T09:45:04.661Z,92.87
2024-05-09T09:45:59.194Z,93.02
2024-05-09T09:46:58.211Z,90.93
2024-05-09T09:47:58.164Z,89.54
2024-05-09T09:48:58.144Z,89.24
2024-05-09T09:49:57.995Z,90.96
2024-05-09T09:50:57.934Z,85.36
2024-05-09T09:51:57.878Z,95.33
2024-05-09T09:52:57.819Z,103.02
2024-05-09T09:53:57.808Z,98.35
2024-05-09T09:54:57.846Z,85.25
2024-05-09T09:55:57.799Z,86.54
2024-05-09T09:56:57.813Z,80.84
2024-05-09T09:57:57.826Z,75.55
2024-05-09T09:58:57.745Z,73.15
2024-05-09T09:59:57.736Z,59.59
2024-05-09T10:00:57.848Z,55.37
2024-05-09T10:01:57.803Z,54.39
2024-05-09T10:02:57.727Z,53.82
2024-05-09T10:03:57.701Z,57.59
2024-05-09T10:04:57.688Z,50.00
2024-05-09T10:05:57.706Z,54.22
2024-05-09T10:06:57.690Z,58.40
2024-05-09T10:07:57.628Z,50.00
2024-05-09T10:08:57.612Z,54.33
2024-05-09T10:09:57.642Z,54.25
2024-05-09T10:10:57.753Z,52.02
2024-05-09T10:12:57.642Z,53.94
2024-05-09T10:13:57.554Z,54.54
2024-05-09T10:14:57.456Z,51.82
2024-05-09T10:15:57.440Z,56.69
2024-05-09T10:16:57.332Z,54.94
2024-05-09T10:17:57.361Z,53.73
2024-05-09T10:18:57.402Z,54.83
2024-05-09T10:19:57.362Z,47.79
2024-05-09T10:20:57.279Z,55.56
2024-05-09T10:21:57.323Z,50.94
2024-05-09T10:22:57.230Z,54.08
2024-05-09T10:23:57.240Z,46.42
2024-05-09T10:24:57.326Z,53.24
2024-05-09T10:25:57.233Z,63.15
2024-05-09T10:26:57.211Z,64.00
2024-05-09T10:27:57.217Z,65.78
2024-05-09T10:28:57.182Z,70.08
2024-05-09T10:29:57.232Z,72.77
2024-05-09T10:30:57.245Z,58.04
2024-05-09T10:31:57.148Z,53.67
2024-05-09T10:32:57.166Z,57.16
2024-05-09T10:33:57.204Z,64.54
2024-05-09T10:34:57.152Z,68.84
2024-05-09T10:35:57.059Z,62.31
2024-05-09T10:36:57.117Z,54.98
2024-05-09T10:37:57.025Z,50.23
2024-05-09T10:38:57.022Z,52.14
2024-05-09T10:39:57.054Z,54.90
2024-05-09T10:40:57.022Z,56.11
2024-05-09T10:41:57.012Z,49.86
2024-05-09T10:42:57.202Z,46.97
2024-05-09T10:43:56.975Z,55.77
2024-05-09T10:44:56.970Z,55.53
2024-05-09T10:45:56.974Z,50.42
2024-05-09T10:46:57.949Z,45.79
2024-05-09T10:47:56.951Z,42.54
2024-05-09T10:48:56.858Z,37.01
2024-05-09T10:49:56.711Z,41.68
2024-05-09T10:50:56.602Z,26.65
2024-05-09T10:51:56.612Z,45.25
2024-05-09T10:52:56.448Z,57.25
2024-05-09T10:53:56.390Z,55.10
2024-05-09T10:54:56.311Z,53.55
2024-05-09T10:55:56.195Z,76.40
2024-05-09T10:56:56.149Z,84.38
2024-05-09T10:57:56.106Z,82.75
2024-05-09T10:58:55.992Z,90.88
2024-05-09T10:59:55.866Z,90.80
2024-05-09T11:00:55.953Z,83.09
2024-05-09T11:01:55.823Z,88.37
2024-05-09T11:02:55.701Z,74.33
2024-05-09T11:03:55.757Z,73.91
2024-05-09T11:04:55.766Z,80.96
2024-05-09T11:05:55.657Z,78.86
2024-05-09T11:06:55.565Z,76.48
2024-05-09T11:07:55.460Z,76.78
2024-05-09T11:08:55.456Z,66.57
2024-05-09T11:09:55.485Z,60.90
2024-05-09T11:10:55.524Z,58.18
2024-05-09T11:11:55.483Z,54.97
2024-05-09T11:12:55.486Z,52.05
2024-05-09T11:13:55.439Z,54.05
2024-05-09T11:14:55.398Z,65.84
2024-05-09T11:15:55.461Z,75.02
2024-05-09T11:16:55.534Z,81.35
2024-05-09T11:17:55.779Z,85.31
2024-05-09T11:18:56.296Z,86.92
2024-05-09T11:19:55.804Z,97.55
2024-05-09T11:20:55.740Z,109.44
2024-05-09T11:21:55.732Z,105.92
2024-05-09T11:22:55.628Z,100.35
2024-05-09T11:23:55.637Z,103.12
2024-05-09T11:24:55.825Z,83.31
2024-05-09T11:25:55.833Z,72.18
2024-05-09T11:26:55.969Z,69.11
2024-05-09T11:27:56.123Z,59.71
2024-05-09T11:28:56.219Z,55.84
2024-05-09T11:29:56.332Z,70.60
2024-05-09T11:30:56.477Z,70.11
2024-05-09T11:31:56.624Z,75.92
2024-05-09T11:32:56.975Z,69.36
2024-05-09T11:33:57.182Z,72.67
2024-05-09T11:34:57.125Z,73.24
2024-05-09T11:35:57.284Z,86.82
2024-05-09T11:36:57.432Z,103.06
2024-05-09T11:37:57.530Z,97.66
2024-05-09T11:38:57.691Z,101.51
2024-05-09T11:39:57.850Z,102.96
2024-05-09T11:40:57.998Z,89.67
2024-05-09T11:41:58.163Z,65.71
2024-05-09T11:42:58.338Z,52.61
2024-05-09T11:43:58.460Z,53.48
2024-05-09T11:44:58.600Z,50.14
2024-05-09T11:45:58.822Z,53.47
2024-05-09T11:46:58.874Z,51.33
2024-05-09T11:47:59.120Z,75.94
2024-05-09T11:48:59.326Z,89.74
2024-05-09T11:49:59.510Z,101.79
2024-05-09T11:50:59.445Z,106.52
2024-05-09T11:51:59.675Z,110.57
2024-05-09T11:52:59.649Z,113.87
2024-05-09T11:53:59.789Z,99.08
2024-05-09T11:54:59.981Z,95.74
2024-05-09T11:56:00.009Z,94.66
2024-05-09T11:57:00.230Z,98.62
2024-05-09T11:58:00.426Z,93.27
2024-05-09T11:59:00.495Z,101.33
2024-05-09T12:00:00.642Z,108.44
2024-05-09T12:01:00.863Z,95.21
2024-05-09T12:02:00.991Z,80.07
2024-05-09T12:03:00.981Z,71.37
2024-05-09T12:04:01.409Z,83.66
2024-05-09T12:05:01.163Z,100.53
2024-05-09T12:06:01.179Z,103.01
2024-05-09T12:07:00.981Z,116.08
2024-05-09T12:08:00.857Z,118.27
2024-05-09T12:09:00.806Z,114.04
2024-05-09T12:10:00.806Z,103.35
2024-05-09T12:11:00.971Z,90.19
2024-05-09T12:12:00.617Z,78.46
2024-05-09T12:13:00.611Z,71.86
2024-05-09T12:14:00.504Z,60.61
2024-05-09T12:15:00.498Z,54.65
2024-05-09T12:16:00.535Z,53.44
2024-05-09T12:17:00.467Z,50.00
2024-05-09T12:18:03.472Z,58.67
2024-05-09T12:19:00.346Z,69.36
2024-05-09T12:20:00.242Z,79.57
2024-05-09T12:21:00.128Z,72.77
2024-05-09T12:22:00.187Z,72.50
2024-05-09T12:23:00.047Z,65.24
2024-05-09T12:23:59.964Z,66.43
2024-05-09T12:24:59.908Z,65.83
2024-05-09T12:25:59.833Z,67.56
2024-05-09T12:27:00.570Z,74.00
2024-05-09T12:27:59.856Z,77.59
2024-05-09T12:28:59.548Z,79.43
2024-05-09T12:29:59.441Z,65.92
2024-05-09T12:30:59.413Z,59.08
2024-05-09T12:31:59.331Z,63.39
2024-05-09T12:32:59.208Z,68.16
2024-05-09T12:33:59.122Z,70.57
2024-05-09T12:34:58.936Z,69.69
2024-05-09T12:35:58.860Z,50.00
2024-05-09T12:36:58.797Z,48.00
2024-05-09T12:37:58.650Z,50.32
2024-05-09T12:38:58.542Z,50.62
2024-05-09T12:39:58.486Z,50.00
2024-05-09T12:40:58.361Z,51.19
2024-05-09T12:41:58.252Z,69.39
2024-05-09T12:42:58.179Z,82.98
2024-05-09T12:43:58.033Z,72.46
2024-05-09T12:44:57.927Z,57.50
2024-05-09T12:45:57.881Z,50.00
2024-05-09T12:46:57.730Z,61.93
2024-05-09T12:47:57.738Z,79.29
2024-05-09T12:48:57.629Z,82.55